sensor_id;sensor_type;location;lat;lon;timestamp;P1;durP1;ratioP1;P2;durP2;ratioP2
9334;SDS011;4706;41.844;26.082;2023-07-29T00:01:22;2.33;;;2.13;;
9334;SDS011;4706;41.844;26.082;2023-07-29T00:03:47;4.47;;;2.53;;
9334;SDS011;4706;41.844;26.082;2023-07-29T00:06:13;2.83;;;2.53;;
9334;SDS011;4706;41.844;26.082;2023-07-29T00:08:38;5.47;;;2.60;;
9334;SDS011;4706;41.844;26.082;2023-07-29T00:11:04;3.50;;;2.80;;
9334;SDS011;4706;41.844;26.082;2023-07-29T00:13:29;2.92;;;2.40;;
9334;SDS011;4706;41.844;26.082;2023-07-29T00:15:55;4.32;;;2.30;;
9334;SDS011;4706;41.844;26.082;2023-07-29T00:18:23;3.25;;;2.22;;
9334;SDS011;4706;41.844;26.082;2023-07-29T00:20:49;5.43;;;2.63;;
9334;SDS011;4706;41.844;26.082;2023-07-29T00:23:16;4.05;;;2.80;;
9334;SDS011;4706;41.844;26.082;2023-07-29T00:25:44;4.15;;;3.70;;
9334;SDS011;4706;41.844;26.082;2023-07-29T00:28:09;6.75;;;3.03;;
9334;SDS011;4706;41.844;26.082;2023-07-29T00:30:35;2.63;;;2.42;;
9334;SDS011;4706;41.844;26.082;2023-07-29T00:33:00;3.08;;;2.67;;
9334;SDS011;4706;41.844;26.082;2023-07-29T00:35:26;3.28;;;2.80;;
9334;SDS011;4706;41.844;26.082;2023-07-29T00:37:52;3.80;;;2.70;;
9334;SDS011;4706;41.844;26.082;2023-07-29T00:40:21;3.00;;;2.67;;
9334;SDS011;4706;41.844;26.082;2023-07-29T00:42:48;2.78;;;2.58;;
9334;SDS011;4706;41.844;26.082;2023-07-29T00:45:14;4.32;;;2.53;;
9334;SDS011;4706;41.844;26.082;2023-07-29T00:47:40;3.75;;;2.88;;
9334;SDS011;4706;41.844;26.082;2023-07-29T00:50:06;4.60;;;2.40;;
9334;SDS011;4706;41.844;26.082;2023-07-29T00:52:32;3.15;;;2.47;;
9334;SDS011;4706;41.844;26.082;2023-07-29T00:54:58;3.35;;;2.60;;
9334;SDS011;4706;41.844;26.082;2023-07-29T00:57:23;3.70;;;2.47;;
9334;SDS011;4706;41.844;26.082;2023-07-29T00:59:50;2.88;;;2.50;;
9334;SDS011;4706;41.844;26.082;2023-07-29T01:02:17;4.03;;;2.85;;
9334;SDS011;4706;41.844;26.082;2023-07-29T01:04:42;3.17;;;2.80;;
9334;SDS011;4706;41.844;26.082;2023-07-29T01:15:11;4.20;;;2.85;;
9334;SDS011;4706;41.844;26.082;2023-07-29T01:18:02;3.60;;;2.30;;
9334;SDS011;4706;41.844;26.082;2023-07-29T01:20:53;3.17;;;2.42;;
9334;SDS011;4706;41.844;26.082;2023-07-29T01:23:24;5.78;;;2.45;;
9334;SDS011;4706;41.844;26.082;2023-07-29T01:25:50;4.38;;;2.85;;
9334;SDS011;4706;41.844;26.082;2023-07-29T01:28:16;5.10;;;2.60;;
9334;SDS011;4706;41.844;26.082;2023-07-29T01:30:42;3.80;;;2.40;;
9334;SDS011;4706;41.844;26.082;2023-07-29T01:33:10;6.38;;;2.80;;
9334;SDS011;4706;41.844;26.082;2023-07-29T01:38:12;3.45;;;2.50;;
9334;SDS011;4706;41.844;26.082;2023-07-29T01:40:42;5.35;;;2.38;;
9334;SDS011;4706;41.844;26.082;2023-07-29T01:43:08;4.40;;;2.60;;
9334;SDS011;4706;41.844;26.082;2023-07-29T01:45:34;4.18;;;2.47;;
9334;SDS011;4706;41.844;26.082;2023-07-29T01:48:04;3.28;;;2.42;;
9334;SDS011;4706;41.844;26.082;2023-07-29T01:50:30;4.47;;;2.58;;
9334;SDS011;4706;41.844;26.082;2023-07-29T01:52:57;4.60;;;2.67;;
9334;SDS011;4706;41.844;26.082;2023-07-29T01:55:23;3.70;;;2.53;;
9334;SDS011;4706;41.844;26.082;2023-07-29T01:57:48;4.85;;;2.83;;
9334;SDS011;4706;41.844;26.082;2023-07-29T02:00:14;4.55;;;2.60;;
9334;SDS011;4706;41.844;26.082;2023-07-29T02:02:40;3.25;;;2.47;;
9334;SDS011;4706;41.844;26.082;2023-07-29T02:05:06;4.40;;;2.40;;
9334;SDS011;4706;41.844;26.082;2023-07-29T02:07:31;4.95;;;2.42;;
9334;SDS011;4706;41.844;26.082;2023-07-29T02:09:57;4.20;;;2.50;;
9334;SDS011;4706;41.844;26.082;2023-07-29T02:12:22;4.55;;;2.72;;
9334;SDS011;4706;41.844;26.082;2023-07-29T02:14:48;6.70;;;3.25;;
9334;SDS011;4706;41.844;26.082;2023-07-29T02:17:13;7.35;;;3.15;;
9334;SDS011;4706;41.844;26.082;2023-07-29T02:19:39;6.43;;;3.63;;
9334;SDS011;4706;41.844;26.082;2023-07-29T02:22:04;7.72;;;3.65;;
9334;SDS011;4706;41.844;26.082;2023-07-29T02:24:30;6.63;;;3.80;;
9334;SDS011;4706;41.844;26.082;2023-07-29T02:26:55;5.03;;;3.45;;
9334;SDS011;4706;41.844;26.082;2023-07-29T02:29:21;6.95;;;3.72;;
9334;SDS011;4706;41.844;26.082;2023-07-29T02:31:46;6.93;;;3.90;;
9334;SDS011;4706;41.844;26.082;2023-07-29T02:34:12;5.85;;;4.70;;
9334;SDS011;4706;41.844;26.082;2023-07-29T02:36:38;6.15;;;4.18;;
9334;SDS011;4706;41.844;26.082;2023-07-29T02:39:04;5.75;;;3.20;;
9334;SDS011;4706;41.844;26.082;2023-07-29T02:41:29;3.70;;;2.60;;
9334;SDS011;4706;41.844;26.082;2023-07-29T02:43:55;4.57;;;2.70;;
9334;SDS011;4706;41.844;26.082;2023-07-29T02:46:20;3.70;;;3.25;;
9334;SDS011;4706;41.844;26.082;2023-07-29T02:48:46;4.38;;;3.45;;
9334;SDS011;4706;41.844;26.082;2023-07-29T02:51:11;6.13;;;3.35;;
9334;SDS011;4706;41.844;26.082;2023-07-29T02:53:37;4.28;;;3.30;;
9334;SDS011;4706;41.844;26.082;2023-07-29T02:56:03;3.92;;;2.90;;
9334;SDS011;4706;41.844;26.082;2023-07-29T02:58:29;5.47;;;3.10;;
9334;SDS011;4706;41.844;26.082;2023-07-29T03:01:04;4.55;;;3.03;;
9334;SDS011;4706;41.844;26.082;2023-07-29T03:03:30;3.25;;;2.72;;
9334;SDS011;4706;41.844;26.082;2023-07-29T03:05:57;3.65;;;2.78;;
9334;SDS011;4706;41.844;26.082;2023-07-29T03:08:30;4.13;;;2.75;;
9334;SDS011;4706;41.844;26.082;2023-07-29T03:10:56;3.63;;;3.17;;
9334;SDS011;4706;41.844;26.082;2023-07-29T03:13:22;3.17;;;2.95;;
9334;SDS011;4706;41.844;26.082;2023-07-29T03:15:48;3.15;;;2.85;;
9334;SDS011;4706;41.844;26.082;2023-07-29T03:18:14;9.85;;;3.50;;
9334;SDS011;4706;41.844;26.082;2023-07-29T03:20:40;5.15;;;3.60;;
9334;SDS011;4706;41.844;26.082;2023-07-29T03:23:05;3.80;;;3.47;;
9334;SDS011;4706;41.844;26.082;2023-07-29T03:25:31;4.22;;;3.10;;
9334;SDS011;4706;41.844;26.082;2023-07-29T03:27:57;5.45;;;3.47;;
9334;SDS011;4706;41.844;26.082;2023-07-29T03:30:23;3.90;;;3.08;;
9334;SDS011;4706;41.844;26.082;2023-07-29T03:32:48;3.80;;;2.80;;
9334;SDS011;4706;41.844;26.082;2023-07-29T03:35:14;3.55;;;2.63;;
9334;SDS011;4706;41.844;26.082;2023-07-29T03:37:40;3.42;;;2.90;;
9334;SDS011;4706;41.844;26.082;2023-07-29T03:40:06;3.78;;;2.60;;
9334;SDS011;4706;41.844;26.082;2023-07-29T03:42:34;4.05;;;3.28;;
9334;SDS011;4706;41.844;26.082;2023-07-29T03:45:00;8.52;;;3.53;;
9334;SDS011;4706;41.844;26.082;2023-07-29T03:47:25;7.53;;;3.30;;
9334;SDS011;4706;41.844;26.082;2023-07-29T03:49:51;6.47;;;3.60;;
9334;SDS011;4706;41.844;26.082;2023-07-29T03:52:16;5.15;;;4.43;;
9334;SDS011;4706;41.844;26.082;2023-07-29T03:54:41;8.27;;;4.57;;
9334;SDS011;4706;41.844;26.082;2023-07-29T03:57:07;6.75;;;3.50;;
9334;SDS011;4706;41.844;26.082;2023-07-29T03:59:32;9.43;;;3.60;;
9334;SDS011;4706;41.844;26.082;2023-07-29T04:01:58;5.85;;;3.60;;
9334;SDS011;4706;41.844;26.082;2023-07-29T04:04:24;5.85;;;3.80;;
9334;SDS011;4706;41.844;26.082;2023-07-29T04:06:50;4.65;;;3.58;;
9334;SDS011;4706;41.844;26.082;2023-07-29T04:09:15;7.45;;;3.63;;
9334;SDS011;4706;41.844;26.082;2023-07-29T04:11:41;8.25;;;4.28;;
9334;SDS011;4706;41.844;26.082;2023-07-29T04:14:06;7.68;;;3.63;;
9334;SDS011;4706;41.844;26.082;2023-07-29T04:16:32;9.15;;;3.60;;
9334;SDS011;4706;41.844;26.082;2023-07-29T04:18:57;7.20;;;3.33;;
9334;SDS011;4706;41.844;26.082;2023-07-29T04:21:23;9.30;;;3.60;;
9334;SDS011;4706;41.844;26.082;2023-07-29T04:23:48;10.20;;;3.72;;
9334;SDS011;4706;41.844;26.082;2023-07-29T04:26:14;3.78;;;3.20;;
9334;SDS011;4706;41.844;26.082;2023-07-29T04:28:39;3.63;;;3.20;;
9334;SDS011;4706;41.844;26.082;2023-07-29T04:31:05;6.63;;;3.65;;
9334;SDS011;4706;41.844;26.082;2023-07-29T04:33:30;5.43;;;3.20;;
9334;SDS011;4706;41.844;26.082;2023-07-29T04:35:56;4.70;;;3.20;;
9334;SDS011;4706;41.844;26.082;2023-07-29T04:38:22;4.75;;;3.03;;
9334;SDS011;4706;41.844;26.082;2023-07-29T04:40:50;3.50;;;3.10;;
9334;SDS011;4706;41.844;26.082;2023-07-29T04:43:15;4.03;;;2.58;;
9334;SDS011;4706;41.844;26.082;2023-07-29T04:45:44;3.97;;;2.60;;
9334;SDS011;4706;41.844;26.082;2023-07-29T04:48:10;3.97;;;3.28;;
9334;SDS011;4706;41.844;26.082;2023-07-29T04:50:36;6.68;;;3.30;;
9334;SDS011;4706;41.844;26.082;2023-07-29T04:53:01;5.68;;;3.50;;
9334;SDS011;4706;41.844;26.082;2023-07-29T04:55:27;4.93;;;3.40;;
9334;SDS011;4706;41.844;26.082;2023-07-29T04:57:52;4.20;;;2.92;;
9334;SDS011;4706;41.844;26.082;2023-07-29T05:00:18;4.15;;;3.40;;
9334;SDS011;4706;41.844;26.082;2023-07-29T05:02:43;5.18;;;3.20;;
9334;SDS011;4706;41.844;26.082;2023-07-29T05:05:09;6.85;;;3.75;;
9334;SDS011;4706;41.844;26.082;2023-07-29T05:07:34;5.60;;;3.30;;
9334;SDS011;4706;41.844;26.082;2023-07-29T05:10:00;4.07;;;3.30;;
9334;SDS011;4706;41.844;26.082;2023-07-29T05:12:25;6.95;;;4.10;;
9334;SDS011;4706;41.844;26.082;2023-07-29T05:14:51;8.00;;;3.60;;
9334;SDS011;4706;41.844;26.082;2023-07-29T05:17:16;6.82;;;3.33;;
9334;SDS011;4706;41.844;26.082;2023-07-29T05:19:42;6.20;;;3.30;;
9334;SDS011;4706;41.844;26.082;2023-07-29T05:22:07;8.38;;;3.60;;
9334;SDS011;4706;41.844;26.082;2023-07-29T05:24:33;4.38;;;2.88;;
9334;SDS011;4706;41.844;26.082;2023-07-29T05:26:58;4.03;;;3.30;;
9334;SDS011;4706;41.844;26.082;2023-07-29T05:29:24;6.30;;;3.92;;
9334;SDS011;4706;41.844;26.082;2023-07-29T05:31:49;5.25;;;4.32;;
9334;SDS011;4706;41.844;26.082;2023-07-29T05:34:15;5.55;;;3.25;;
9334;SDS011;4706;41.844;26.082;2023-07-29T05:36:41;4.65;;;3.47;;
9334;SDS011;4706;41.844;26.082;2023-07-29T05:39:06;6.70;;;5.68;;
9334;SDS011;4706;41.844;26.082;2023-07-29T05:41:32;4.90;;;3.47;;
9334;SDS011;4706;41.844;26.082;2023-07-29T05:43:58;5.70;;;3.70;;
9334;SDS011;4706;41.844;26.082;2023-07-29T05:46:23;3.92;;;3.28;;
9334;SDS011;4706;41.844;26.082;2023-07-29T05:48:49;4.82;;;3.50;;
9334;SDS011;4706;41.844;26.082;2023-07-29T05:51:14;6.60;;;3.50;;
9334;SDS011;4706;41.844;26.082;2023-07-29T05:53:40;6.25;;;3.40;;
9334;SDS011;4706;41.844;26.082;2023-07-29T05:56:05;3.75;;;3.38;;
9334;SDS011;4706;41.844;26.082;2023-07-29T05:58:31;3.65;;;3.10;;
9334;SDS011;4706;41.844;26.082;2023-07-29T06:00:57;4.18;;;3.20;;
9334;SDS011;4706;41.844;26.082;2023-07-29T06:03:23;3.67;;;3.35;;
9334;SDS011;4706;41.844;26.082;2023-07-29T06:05:49;4.68;;;3.30;;
9334;SDS011;4706;41.844;26.082;2023-07-29T06:08:15;3.20;;;2.85;;
9334;SDS011;4706;41.844;26.082;2023-07-29T06:10:40;4.78;;;3.35;;
9334;SDS011;4706;41.844;26.082;2023-07-29T06:13:06;7.07;;;6.10;;
9334;SDS011;4706;41.844;26.082;2023-07-29T06:15:31;4.15;;;3.45;;
9334;SDS011;4706;41.844;26.082;2023-07-29T06:17:56;7.60;;;4.30;;
9334;SDS011;4706;41.844;26.082;2023-07-29T06:20:22;4.05;;;3.65;;
9334;SDS011;4706;41.844;26.082;2023-07-29T06:22:48;6.53;;;3.75;;
9334;SDS011;4706;41.844;26.082;2023-07-29T06:25:13;5.03;;;3.30;;
9334;SDS011;4706;41.844;26.082;2023-07-29T06:27:39;6.93;;;3.72;;
9334;SDS011;4706;41.844;26.082;2023-07-29T06:30:05;5.53;;;3.50;;
9334;SDS011;4706;41.844;26.082;2023-07-29T06:32:31;3.97;;;3.58;;
9334;SDS011;4706;41.844;26.082;2023-07-29T06:34:57;4.85;;;3.65;;
9334;SDS011;4706;41.844;26.082;2023-07-29T06:37:22;5.20;;;4.30;;
9334;SDS011;4706;41.844;26.082;2023-07-29T06:39:48;4.13;;;3.47;;
9334;SDS011;4706;41.844;26.082;2023-07-29T06:42:13;5.57;;;4.18;;
9334;SDS011;4706;41.844;26.082;2023-07-29T06:44:39;3.80;;;3.30;;
9334;SDS011;4706;41.844;26.082;2023-07-29T06:47:05;5.25;;;3.38;;
9334;SDS011;4706;41.844;26.082;2023-07-29T06:49:31;3.63;;;3.10;;
9334;SDS011;4706;41.844;26.082;2023-07-29T06:51:56;5.80;;;3.38;;
9334;SDS011;4706;41.844;26.082;2023-07-29T06:54:25;4.75;;;3.70;;
9334;SDS011;4706;41.844;26.082;2023-07-29T06:56:54;4.28;;;3.50;;
9334;SDS011;4706;41.844;26.082;2023-07-29T06:59:19;5.15;;;3.40;;
9334;SDS011;4706;41.844;26.082;2023-07-29T07:01:45;4.20;;;3.58;;
9334;SDS011;4706;41.844;26.082;2023-07-29T07:04:11;5.65;;;3.22;;
9334;SDS011;4706;41.844;26.082;2023-07-29T07:06:37;6.90;;;3.70;;
9334;SDS011;4706;41.844;26.082;2023-07-29T07:09:02;3.58;;;3.30;;
9334;SDS011;4706;41.844;26.082;2023-07-29T07:11:28;4.80;;;3.55;;
9334;SDS011;4706;41.844;26.082;2023-07-29T07:13:53;4.68;;;3.15;;
9334;SDS011;4706;41.844;26.082;2023-07-29T07:16:19;4.10;;;2.90;;
9334;SDS011;4706;41.844;26.082;2023-07-29T07:18:44;6.15;;;3.08;;
9334;SDS011;4706;41.844;26.082;2023-07-29T07:21:10;3.60;;;2.85;;
9334;SDS011;4706;41.844;26.082;2023-07-29T07:23:36;5.60;;;4.47;;
9334;SDS011;4706;41.844;26.082;2023-07-29T07:26:01;5.00;;;3.15;;
9334;SDS011;4706;41.844;26.082;2023-07-29T07:28:27;5.88;;;3.80;;
9334;SDS011;4706;41.844;26.082;2023-07-29T07:30:52;5.82;;;3.65;;
9334;SDS011;4706;41.844;26.082;2023-07-29T07:33:18;13.80;;;4.93;;
9334;SDS011;4706;41.844;26.082;2023-07-29T07:35:43;10.60;;;4.40;;
9334;SDS011;4706;41.844;26.082;2023-07-29T07:38:09;7.72;;;4.65;;
9334;SDS011;4706;41.844;26.082;2023-07-29T07:40:35;5.22;;;3.40;;
9334;SDS011;4706;41.844;26.082;2023-07-29T07:43:01;7.05;;;4.00;;
9334;SDS011;4706;41.844;26.082;2023-07-29T07:45:27;6.72;;;4.35;;
9334;SDS011;4706;41.844;26.082;2023-07-29T07:47:52;3.65;;;3.35;;
9334;SDS011;4706;41.844;26.082;2023-07-29T07:50:18;4.22;;;3.40;;
9334;SDS011;4706;41.844;26.082;2023-07-29T07:52:44;3.28;;;2.75;;
9334;SDS011;4706;41.844;26.082;2023-07-29T07:55:10;5.20;;;3.17;;
9334;SDS011;4706;41.844;26.082;2023-07-29T07:57:35;11.77;;;4.55;;
9334;SDS011;4706;41.844;26.082;2023-07-29T08:00:01;3.63;;;3.30;;
9334;SDS011;4706;41.844;26.082;2023-07-29T08:02:26;5.80;;;3.10;;
9334;SDS011;4706;41.844;26.082;2023-07-29T08:04:52;3.67;;;2.85;;
9334;SDS011;4706;41.844;26.082;2023-07-29T08:07:18;8.32;;;3.80;;
9334;SDS011;4706;41.844;26.082;2023-07-29T08:09:43;5.32;;;3.35;;
9334;SDS011;4706;41.844;26.082;2023-07-29T08:12:09;3.97;;;3.10;;
9334;SDS011;4706;41.844;26.082;2023-07-29T08:14:34;5.18;;;3.83;;
9334;SDS011;4706;41.844;26.082;2023-07-29T08:17:00;2.97;;;2.78;;
9334;SDS011;4706;41.844;26.082;2023-07-29T08:19:26;5.82;;;2.75;;
9334;SDS011;4706;41.844;26.082;2023-07-29T08:21:52;2.90;;;2.70;;
9334;SDS011;4706;41.844;26.082;2023-07-29T08:24:18;5.25;;;3.70;;
9334;SDS011;4706;41.844;26.082;2023-07-29T08:26:43;5.38;;;3.75;;
9334;SDS011;4706;41.844;26.082;2023-07-29T08:29:09;4.75;;;3.00;;
9334;SDS011;4706;41.844;26.082;2023-07-29T08:31:34;6.68;;;3.78;;
9334;SDS011;4706;41.844;26.082;2023-07-29T08:34:00;2.97;;;2.70;;
9334;SDS011;4706;41.844;26.082;2023-07-29T08:36:26;3.63;;;2.88;;
9334;SDS011;4706;41.844;26.082;2023-07-29T08:38:51;4.60;;;3.20;;
9334;SDS011;4706;41.844;26.082;2023-07-29T08:41:28;3.20;;;2.80;;
9334;SDS011;4706;41.844;26.082;2023-07-29T08:46:33;3.95;;;3.28;;
9334;SDS011;4706;41.844;26.082;2023-07-29T08:48:59;3.65;;;2.80;;
9334;SDS011;4706;41.844;26.082;2023-07-29T08:51:26;3.33;;;3.03;;
9334;SDS011;4706;41.844;26.082;2023-07-29T08:53:52;3.08;;;2.60;;
9334;SDS011;4706;41.844;26.082;2023-07-29T08:56:18;8.40;;;3.50;;
9334;SDS011;4706;41.844;26.082;2023-07-29T08:58:44;4.75;;;2.50;;
9334;SDS011;4706;41.844;26.082;2023-07-29T09:01:10;5.72;;;2.92;;
9334;SDS011;4706;41.844;26.082;2023-07-29T09:03:37;3.85;;;3.55;;
9334;SDS011;4706;41.844;26.082;2023-07-29T09:06:02;4.10;;;2.92;;
9334;SDS011;4706;41.844;26.082;2023-07-29T09:08:28;3.08;;;2.60;;
9334;SDS011;4706;41.844;26.082;2023-07-29T09:10:54;2.75;;;2.55;;
9334;SDS011;4706;41.844;26.082;2023-07-29T09:13:20;2.60;;;2.40;;
9334;SDS011;4706;41.844;26.082;2023-07-29T09:15:46;4.45;;;2.88;;
9334;SDS011;4706;41.844;26.082;2023-07-29T09:18:15;3.72;;;2.63;;
9334;SDS011;4706;41.844;26.082;2023-07-29T09:20:42;3.20;;;2.70;;
9334;SDS011;4706;41.844;26.082;2023-07-29T09:23:08;5.65;;;4.28;;
9334;SDS011;4706;41.844;26.082;2023-07-29T09:25:37;4.43;;;3.50;;
9334;SDS011;4706;41.844;26.082;2023-07-29T09:28:08;3.83;;;2.65;;
9334;SDS011;4706;41.844;26.082;2023-07-29T09:30:38;4.97;;;3.47;;
9334;SDS011;4706;41.844;26.082;2023-07-29T09:33:10;7.65;;;6.07;;
9334;SDS011;4706;41.844;26.082;2023-07-29T09:35:36;4.22;;;3.08;;
9334;SDS011;4706;41.844;26.082;2023-07-29T09:38:03;4.95;;;3.08;;
9334;SDS011;4706;41.844;26.082;2023-07-29T09:40:36;4.78;;;3.08;;
9334;SDS011;4706;41.844;26.082;2023-07-29T09:43:06;11.05;;;5.35;;
9334;SDS011;4706;41.844;26.082;2023-07-29T09:45:33;7.00;;;4.47;;
9334;SDS011;4706;41.844;26.082;2023-07-29T09:48:00;5.30;;;2.90;;
9334;SDS011;4706;41.844;26.082;2023-07-29T09:50:27;10.82;;;5.65;;
9334;SDS011;4706;41.844;26.082;2023-07-29T09:52:53;4.00;;;2.80;;
9334;SDS011;4706;41.844;26.082;2023-07-29T09:55:23;6.13;;;5.53;;
9334;SDS011;4706;41.844;26.082;2023-07-29T09:57:59;4.05;;;2.70;;
9334;SDS011;4706;41.844;26.082;2023-07-29T10:00:28;9.52;;;4.03;;
9334;SDS011;4706;41.844;26.082;2023-07-29T10:02:54;6.57;;;2.95;;
9334;SDS011;4706;41.844;26.082;2023-07-29T10:05:21;7.47;;;5.00;;
9334;SDS011;4706;41.844;26.082;2023-07-29T10:07:48;13.38;;;7.93;;
9334;SDS011;4706;41.844;26.082;2023-07-29T10:10:15;6.75;;;4.13;;
9334;SDS011;4706;41.844;26.082;2023-07-29T10:12:40;4.38;;;2.70;;
9334;SDS011;4706;41.844;26.082;2023-07-29T10:15:08;5.05;;;2.60;;
9334;SDS011;4706;41.844;26.082;2023-07-29T10:17:34;5.28;;;2.97;;
9334;SDS011;4706;41.844;26.082;2023-07-29T10:20:03;4.25;;;3.72;;
9334;SDS011;4706;41.844;26.082;2023-07-29T10:22:33;5.13;;;2.67;;
9334;SDS011;4706;41.844;26.082;2023-07-29T10:25:07;9.20;;;5.78;;
9334;SDS011;4706;41.844;26.082;2023-07-29T10:27:56;4.95;;;3.75;;
9334;SDS011;4706;41.844;26.082;2023-07-29T10:30:25;7.60;;;5.43;;
9334;SDS011;4706;41.844;26.082;2023-07-29T10:32:53;3.72;;;2.33;;
9334;SDS011;4706;41.844;26.082;2023-07-29T10:35:22;5.60;;;3.10;;
9334;SDS011;4706;41.844;26.082;2023-07-29T10:37:47;8.27;;;6.00;;
9334;SDS011;4706;41.844;26.082;2023-07-29T10:40:16;9.63;;;6.13;;
9334;SDS011;4706;41.844;26.082;2023-07-29T10:42:58;2.65;;;2.45;;
9334;SDS011;4706;41.844;26.082;2023-07-29T10:45:27;4.18;;;2.38;;
9334;SDS011;4706;41.844;26.082;2023-07-29T10:48:06;2.38;;;2.20;;
9334;SDS011;4706;41.844;26.082;2023-07-29T10:50:38;2.40;;;2.20;;
9334;SDS011;4706;41.844;26.082;2023-07-29T10:53:04;3.08;;;2.40;;
9334;SDS011;4706;41.844;26.082;2023-07-29T10:55:33;2.50;;;2.30;;
9334;SDS011;4706;41.844;26.082;2023-07-29T10:58:08;2.90;;;2.70;;
9334;SDS011;4706;41.844;26.082;2023-07-29T11:00:43;4.57;;;2.38;;
9334;SDS011;4706;41.844;26.082;2023-07-29T11:03:10;2.97;;;2.40;;
9334;SDS011;4706;41.844;26.082;2023-07-29T11:05:46;3.20;;;2.70;;
9334;SDS011;4706;41.844;26.082;2023-07-29T11:08:29;3.97;;;2.53;;
9334;SDS011;4706;41.844;26.082;2023-07-29T11:11:06;2.50;;;2.30;;
9334;SDS011;4706;41.844;26.082;2023-07-29T11:13:34;4.65;;;2.40;;
9334;SDS011;4706;41.844;26.082;2023-07-29T11:16:01;2.20;;;2.00;;
9334;SDS011;4706;41.844;26.082;2023-07-29T11:18:28;3.67;;;2.20;;
9334;SDS011;4706;41.844;26.082;2023-07-29T11:20:55;2.45;;;2.25;;
9334;SDS011;4706;41.844;26.082;2023-07-29T11:23:27;2.10;;;2.00;;
9334;SDS011;4706;41.844;26.082;2023-07-29T11:25:54;2.80;;;2.20;;
9334;SDS011;4706;41.844;26.082;2023-07-29T11:28:20;2.72;;;2.38;;
9334;SDS011;4706;41.844;26.082;2023-07-29T11:30:47;2.25;;;2.10;;
9334;SDS011;4706;41.844;26.082;2023-07-29T11:33:14;2.97;;;2.30;;
9334;SDS011;4706;41.844;26.082;2023-07-29T11:35:42;2.28;;;1.90;;
9334;SDS011;4706;41.844;26.082;2023-07-29T11:38:08;2.25;;;2.13;;
9334;SDS011;4706;41.844;26.082;2023-07-29T11:40:40;3.03;;;2.17;;
9334;SDS011;4706;41.844;26.082;2023-07-29T11:43:06;4.05;;;2.30;;
9334;SDS011;4706;41.844;26.082;2023-07-29T11:45:33;2.60;;;2.20;;
9334;SDS011;4706;41.844;26.082;2023-07-29T11:47:58;2.30;;;2.10;;
9334;SDS011;4706;41.844;26.082;2023-07-29T11:50:26;2.55;;;1.85;;
9334;SDS011;4706;41.844;26.082;2023-07-29T11:52:52;2.40;;;2.20;;
9334;SDS011;4706;41.844;26.082;2023-07-29T11:55:18;2.60;;;2.08;;
9334;SDS011;4706;41.844;26.082;2023-07-29T11:57:44;2.05;;;1.85;;
9334;SDS011;4706;41.844;26.082;2023-07-29T12:00:16;2.00;;;1.90;;
9334;SDS011;4706;41.844;26.082;2023-07-29T12:02:43;2.53;;;2.10;;
9334;SDS011;4706;41.844;26.082;2023-07-29T12:05:10;2.55;;;1.80;;
9334;SDS011;4706;41.844;26.082;2023-07-29T12:07:40;2.53;;;2.30;;
9334;SDS011;4706;41.844;26.082;2023-07-29T12:10:07;2.20;;;2.00;;
9334;SDS011;4706;41.844;26.082;2023-07-29T12:12:38;2.42;;;2.00;;
9334;SDS011;4706;41.844;26.082;2023-07-29T12:15:13;2.50;;;2.28;;
9334;SDS011;4706;41.844;26.082;2023-07-29T12:17:41;2.80;;;2.53;;
9334;SDS011;4706;41.844;26.082;2023-07-29T12:20:10;2.50;;;2.30;;
9334;SDS011;4706;41.844;26.082;2023-07-29T12:22:36;2.65;;;2.00;;
9334;SDS011;4706;41.844;26.082;2023-07-29T12:25:02;2.25;;;2.05;;
9334;SDS011;4706;41.844;26.082;2023-07-29T12:27:29;2.40;;;2.20;;
9334;SDS011;4706;41.844;26.082;2023-07-29T12:29:55;2.22;;;2.03;;
9334;SDS011;4706;41.844;26.082;2023-07-29T12:32:24;2.65;;;2.08;;
9334;SDS011;4706;41.844;26.082;2023-07-29T12:34:52;2.70;;;2.05;;
9334;SDS011;4706;41.844;26.082;2023-07-29T12:37:18;2.67;;;2.25;;
9334;SDS011;4706;41.844;26.082;2023-07-29T12:39:44;2.67;;;2.47;;
9334;SDS011;4706;41.844;26.082;2023-07-29T12:42:10;2.20;;;2.10;;
9334;SDS011;4706;41.844;26.082;2023-07-29T12:44:36;1.95;;;1.85;;
9334;SDS011;4706;41.844;26.082;2023-07-29T12:47:04;3.35;;;1.60;;
9334;SDS011;4706;41.844;26.082;2023-07-29T12:49:31;1.95;;;1.70;;
9334;SDS011;4706;41.844;26.082;2023-07-29T12:51:57;1.85;;;1.75;;
9334;SDS011;4706;41.844;26.082;2023-07-29T12:54:24;2.08;;;1.77;;
9334;SDS011;4706;41.844;26.082;2023-07-29T12:56:49;1.77;;;1.67;;
9334;SDS011;4706;41.844;26.082;2023-07-29T12:59:15;1.83;;;1.67;;
9334;SDS011;4706;41.844;26.082;2023-07-29T13:01:40;2.20;;;2.10;;
9334;SDS011;4706;41.844;26.082;2023-07-29T13:04:06;1.67;;;1.58;;
9334;SDS011;4706;41.844;26.082;2023-07-29T13:06:31;1.90;;;1.67;;
9334;SDS011;4706;41.844;26.082;2023-07-29T13:08:57;1.92;;;1.83;;
9334;SDS011;4706;41.844;26.082;2023-07-29T13:11:22;2.13;;;1.60;;
9334;SDS011;4706;41.844;26.082;2023-07-29T13:13:49;2.58;;;1.85;;
9334;SDS011;4706;41.844;26.082;2023-07-29T13:16:14;2.22;;;2.00;;
9334;SDS011;4706;41.844;26.082;2023-07-29T13:18:40;1.67;;;1.55;;
9334;SDS011;4706;41.844;26.082;2023-07-29T13:21:06;1.92;;;1.50;;
9334;SDS011;4706;41.844;26.082;2023-07-29T13:23:32;1.90;;;1.70;;
9334;SDS011;4706;41.844;26.082;2023-07-29T13:25:57;1.85;;;1.63;;
9334;SDS011;4706;41.844;26.082;2023-07-29T13:28:23;1.65;;;1.55;;
9334;SDS011;4706;41.844;26.082;2023-07-29T13:30:49;1.83;;;1.70;;
9334;SDS011;4706;41.844;26.082;2023-07-29T13:33:14;2.58;;;1.50;;
9334;SDS011;4706;41.844;26.082;2023-07-29T13:35:40;1.55;;;1.45;;
9334;SDS011;4706;41.844;26.082;2023-07-29T13:38:05;2.65;;;2.45;;
9334;SDS011;4706;41.844;26.082;2023-07-29T13:40:31;1.77;;;1.60;;
9334;SDS011;4706;41.844;26.082;2023-07-29T13:42:57;4.38;;;1.77;;
9334;SDS011;4706;41.844;26.082;2023-07-29T13:45:23;1.80;;;1.70;;
9334;SDS011;4706;41.844;26.082;2023-07-29T13:47:49;3.17;;;1.88;;
9334;SDS011;4706;41.844;26.082;2023-07-29T13:50:15;2.10;;;1.90;;
9334;SDS011;4706;41.844;26.082;2023-07-29T13:52:41;1.52;;;1.42;;
9334;SDS011;4706;41.844;26.082;2023-07-29T13:55:07;2.67;;;2.03;;
9334;SDS011;4706;41.844;26.082;2023-07-29T13:57:32;4.32;;;4.00;;
9334;SDS011;4706;41.844;26.082;2023-07-29T13:59:58;2.70;;;2.50;;
9334;SDS011;4706;41.844;26.082;2023-07-29T14:02:24;2.50;;;2.10;;
9334;SDS011;4706;41.844;26.082;2023-07-29T14:04:51;4.05;;;2.38;;
9334;SDS011;4706;41.844;26.082;2023-07-29T14:07:17;7.43;;;3.10;;
9334;SDS011;4706;41.844;26.082;2023-07-29T14:09:43;2.00;;;1.80;;
9334;SDS011;4706;41.844;26.082;2023-07-29T14:12:09;1.85;;;1.63;;
9334;SDS011;4706;41.844;26.082;2023-07-29T14:14:39;1.90;;;1.70;;
9334;SDS011;4706;41.844;26.082;2023-07-29T14:17:05;1.90;;;1.50;;
9334;SDS011;4706;41.844;26.082;2023-07-29T14:19:31;1.75;;;1.65;;
9334;SDS011;4706;41.844;26.082;2023-07-29T14:21:56;2.00;;;1.70;;
9334;SDS011;4706;41.844;26.082;2023-07-29T14:24:22;3.10;;;1.88;;
9334;SDS011;4706;41.844;26.082;2023-07-29T14:26:48;2.28;;;1.95;;
9334;SDS011;4706;41.844;26.082;2023-07-29T14:29:13;3.15;;;2.33;;
9334;SDS011;4706;41.844;26.082;2023-07-29T14:31:39;2.72;;;1.80;;
9334;SDS011;4706;41.844;26.082;2023-07-29T14:34:04;2.95;;;1.70;;
9334;SDS011;4706;41.844;26.082;2023-07-29T14:36:30;2.50;;;1.92;;
9334;SDS011;4706;41.844;26.082;2023-07-29T14:38:55;1.70;;;1.60;;
9334;SDS011;4706;41.844;26.082;2023-07-29T14:41:21;2.58;;;2.25;;
9334;SDS011;4706;41.844;26.082;2023-07-29T14:43:47;2.22;;;1.70;;
9334;SDS011;4706;41.844;26.082;2023-07-29T14:46:12;2.17;;;1.98;;
9334;SDS011;4706;41.844;26.082;2023-07-29T14:48:38;3.40;;;1.90;;
9334;SDS011;4706;41.844;26.082;2023-07-29T14:51:03;1.60;;;1.50;;
9334;SDS011;4706;41.844;26.082;2023-07-29T14:53:29;2.28;;;1.88;;
9334;SDS011;4706;41.844;26.082;2023-07-29T14:55:54;2.65;;;2.10;;
9334;SDS011;4706;41.844;26.082;2023-07-29T14:58:20;2.05;;;1.92;;
9334;SDS011;4706;41.844;26.082;2023-07-29T15:00:45;1.95;;;1.80;;
9334;SDS011;4706;41.844;26.082;2023-07-29T15:03:11;2.05;;;1.88;;
9334;SDS011;4706;41.844;26.082;2023-07-29T15:05:36;2.08;;;1.67;;
9334;SDS011;4706;41.844;26.082;2023-07-29T15:08:02;1.75;;;1.60;;
9334;SDS011;4706;41.844;26.082;2023-07-29T15:10:27;1.85;;;1.70;;